Time;durP1;ratioP1;P1;durP2;ratioP2;P2;SDS_P1;SDS_P2;PMS_P1;PMS_P2;Temp;Humidity;BMP_temperature;BMP_pressure;BME280_temperature;BME280_humidity;BME280_pressure;Samples;Min_cycle;Max_cycle;Signal;HPM_P1;HPM_P2
2021/12/20 00:00:53;;;;;;;20.60;4.13;;;;;;;0.94;100.00;101622.88;6074358;29;20123;-91
2021/12/20 00:03:56;;;;;;;20.42;4.38;;;;;;;0.90;100.00;101622.13;6037036;29;20079;-91
2021/12/20 00:06:58;;;;;;;23.95;4.90;;;;;;;0.89;100.00;101619.59;6064241;29;20148;-90
2021/12/20 00:10:00;;;;;;;18.60;4.00;;;;;;;0.80;100.00;101616.38;6050670;29;20472;-91
2021/12/20 00:13:02;;;;;;;25.33;4.80;;;;;;;0.78;100.00;101622.38;6044573;29;20076;-91
2021/12/20 00:16:04;;;;;;;21.80;4.78;;;;;;;0.78;100.00;101618.09;6029930;29;20051;-91
2021/12/20 00:19:09;;;;;;;17.85;4.30;;;;;;;0.73;100.00;101619.06;6055344;29;20049;-90
2021/12/20 00:22:11;;;;;;;21.15;4.85;;;;;;;0.72;100.00;101620.78;6057905;29;20049;-91
2021/12/20 00:25:13;;;;;;;29.08;5.32;;;;;;;0.71;100.00;101620.81;6041633;29;20609;-91
2021/12/20 00:28:20;;;;;;;19.67;3.80;;;;;;;0.67;100.00;101624.28;6047365;29;20466;-91
2021/12/20 00:31:22;;;;;;;18.92;3.97;;;;;;;0.66;100.00;101627.72;6031148;29;20120;-91
2021/12/20 00:34:24;;;;;;;27.52;4.65;;;;;;;0.69;100.00;101628.47;6050624;29;20164;-91
2021/12/20 00:40:48;;;;;;;21.33;4.95;;;;;;;0.62;100.00;101624.38;6051562;29;20086;-91
2021/12/20 00:43:50;;;;;;;23.77;3.95;;;;;;;0.51;100.00;101622.03;6056373;29;20418;-91
2021/12/20 00:46:53;;;;;;;21.27;4.05;;;;;;;0.50;100.00;101627.16;6043721;29;20426;-91
2021/12/20 00:49:55;;;;;;;24.98;4.72;;;;;;;0.50;100.00;101635.66;6056153;29;20059;-91
2021/12/20 00:52:58;;;;;;;21.27;4.60;;;;;;;0.46;100.00;101634.03;6070246;29;20112;-90
2021/12/20 00:56:00;;;;;;;28.50;5.00;;;;;;;0.47;100.00;101632.31;6047419;29;20774;-91
2021/12/20 00:59:02;;;;;;;25.45;4.20;;;;;;;0.46;100.00;101639.13;6046171;29;20041;-91
2021/12/20 01:02:05;;;;;;;29.17;4.60;;;;;;;0.40;100.00;101644.34;6041283;29;20071;-91
2021/12/20 01:05:07;;;;;;;31.40;5.13;;;;;;;0.38;100.00;101653.72;6050629;29;20048;-91
2021/12/20 01:08:09;;;;;;;21.98;3.95;;;;;;;0.41;100.00;101644.28;6043645;29;20510;-91
2021/12/20 01:11:13;;;;;;;18.25;3.83;;;;;;;0.40;100.00;101647.72;6062645;29;20045;-91
2021/12/20 01:14:22;;;;;;;23.90;4.55;;;;;;;0.42;100.00;101655.31;6029278;29;20045;-90
2021/12/20 01:17:24;;;;;;;22.42;4.05;;;;;;;0.45;100.00;101652.75;6034944;29;20044;-91
2021/12/20 01:20:27;;;;;;;30.65;4.72;;;;;;;0.53;100.00;101644.94;6030998;29;20045;-91
2021/12/20 01:23:29;;;;;;;24.05;6.07;;;;;;;0.67;100.00;101660.78;6033600;29;20056;-91
2021/12/20 01:26:30;;;;;;;27.15;4.85;;;;;;;0.69;100.00;101659.06;6065579;29;20045;-90
2021/12/20 01:29:33;;;;;;;30.35;5.88;;;;;;;0.63;100.00;101667.66;6048668;29;20053;-91
2021/12/20 01:32:35;;;;;;;20.88;4.22;;;;;;;0.70;100.00;101659.91;6045657;29;20055;-91
2021/12/20 01:35:38;;;;;;;27.45;4.78;;;;;;;0.75;100.00;101661.50;6062707;29;20177;-90
2021/12/20 01:38:40;;;;;;;26.00;6.18;;;;;;;0.83;100.00;101664.72;6055784;29;20052;-90
2021/12/20 01:41:44;;;;;;;20.90;4.32;;;;;;;0.80;100.00;101664.78;6020921;29;20514;-90
2021/12/20 01:44:49;;;;;;;33.60;6.80;;;;;;;0.85;100.00;101674.91;6043581;29;20069;-90
2021/12/20 01:48:02;;;;;;;25.60;5.13;;;;;;;0.79;100.00;101669.91;6059120;29;20048;-91
2021/12/20 01:51:30;;;;;;;31.25;5.38;;;;;;;0.64;100.00;101676.13;6043778;29;20132;-91
2021/12/20 01:54:32;;;;;;;20.38;3.95;;;;;;;0.42;100.00;101676.56;6044829;29;20231;-90
2021/12/20 01:57:34;;;;;;;24.90;5.50;;;;;;;0.36;100.00;101673.28;6038319;29;20047;-91
2021/12/20 02:00:37;;;;;;;20.63;4.35;;;;;;;0.39;100.00;101676.59;6050210;29;20057;-90
2021/12/20 02:03:43;;;;;;;24.83;5.15;;;;;;;0.45;100.00;101683.31;6071926;29;20497;-91
2021/12/20 02:06:48;;;;;;;23.83;5.22;;;;;;;0.40;100.00;101680.00;6059803;29;20490;-90
2021/12/20 02:09:51;;;;;;;27.30;4.85;;;;;;;0.51;100.00;101689.97;6061854;29;20660;-90
2021/12/20 02:12:53;;;;;;;22.58;4.50;;;;;;;0.70;100.00;101691.31;6040150;29;20090;-91
2021/12/20 02:15:57;;;;;;;47.42;5.07;;;;;;;0.42;100.00;101685.88;6055774;29;20057;-90
2021/12/20 02:19:12;;;;;;;26.00;5.95;;;;;;;0.35;100.00;101684.34;6042585;29;20052;-90
2021/12/20 02:22:17;;;;;;;25.88;4.47;;;;;;;0.21;100.00;101687.94;6053096;29;20087;-90
2021/12/20 02:25:19;;;;;;;25.58;5.25;;;;;;;0.16;100.00;101689.72;6036015;29;20417;-90
2021/12/20 02:28:23;;;;;;;28.95;4.65;;;;;;;0.13;100.00;101688.97;6046590;29;20053;-90
2021/12/20 02:37:48;;;;;;;32.08;5.90;;;;;;;0.05;100.00;101675.50;6065637;29;20048;-90
2021/12/20 02:40:58;;;;;;;21.75;4.57;;;;;;;0.05;100.00;101672.94;6066880;29;20044;-90
2021/12/20 02:47:28;;;;;;;17.92;4.50;;;;;;;-0.06;100.00;101668.06;6051753;29;20040;-90
2021/12/20 02:50:31;;;;;;;20.17;4.70;;;;;;;-0.08;100.00;101662.97;6051957;29;20068;-90
2021/12/20 02:53:33;;;;;;;26.67;4.50;;;;;;;-0.10;100.00;101677.44;6065272;29;20176;-90
2021/12/20 02:56:37;;;;;;;24.17;4.28;;;;;;;-0.14;100.00;101665.63;6036181;29;20048;-90
2021/12/20 02:59:39;;;;;;;18.92;4.93;;;;;;;-0.17;100.00;101669.91;6048016;29;20053;-90
2021/12/20 03:02:41;;;;;;;29.55;4.20;;;;;;;-0.12;100.00;101671.53;6057666;29;20051;-90
2021/12/20 03:05:43;;;;;;;25.45;4.30;;;;;;;-0.09;100.00;101668.94;6036465;29;20519;-90
2021/12/20 03:08:49;;;;;;;71.30;6.43;;;;;;;0.05;100.00;101660.22;6056095;29;20051;-90
2021/12/20 03:11:55;;;;;;;83.10;6.43;;;;;;;0.13;100.00;101656.69;6058977;29;20475;-90
2021/12/20 03:15:04;;;;;;;91.47;7.68;;;;;;;0.32;100.00;101664.00;6042393;29;20149;-90
2021/12/20 03:18:06;;;;;;;59.70;5.68;;;;;;;0.20;100.00;101660.00;6056005;29;20641;-90
2021/12/20 03:21:08;;;;;;;27.80;4.85;;;;;;;0.21;100.00;101659.09;6039431;29;20135;-90
2021/12/20 03:24:10;;;;;;;59.60;5.60;;;;;;;0.20;100.00;101654.91;6048352;29;20419;-90
2021/12/20 03:27:13;;;;;;;37.92;5.05;;;;;;;0.13;100.00;101659.25;6044980;29;20056;-90
2021/12/20 03:30:15;;;;;;;72.07;7.75;;;;;;;0.22;100.00;101665.88;6072457;29;20052;-90
2021/12/20 03:33:17;;;;;;;42.63;5.05;;;;;;;0.19;100.00;101668.47;6043475;29;20123;-90
2021/12/20 03:36:20;;;;;;;83.18;6.45;;;;;;;0.08;100.00;101666.13;6054978;29;20057;-90
2021/12/20 03:39:22;;;;;;;47.13;5.50;;;;;;;0.02;100.00;101657.75;6028970;29;20104;-90
2021/12/20 03:42:27;;;;;;;45.58;5.45;;;;;;;-0.05;100.00;101669.72;6024650;29;20262;-90
2021/12/20 03:45:29;;;;;;;37.83;5.57;;;;;;;-0.14;100.00;101664.78;6039874;29;20048;-90
2021/12/20 03:48:44;;;;;;;30.52;4.95;;;;;;;-0.13;100.00;101667.28;6048024;29;20055;-90
2021/12/20 03:51:46;;;;;;;21.25;5.03;;;;;;;-0.17;100.00;101660.59;6039845;29;20505;-90
2021/12/20 03:54:48;;;;;;;18.15;4.50;;;;;;;-0.15;100.00;101673.28;6034672;29;20044;-90
2021/12/20 03:57:50;;;;;;;27.48;4.95;;;;;;;-0.24;100.00;101675.13;6051669;29;20045;-90
2021/12/20 04:00:55;;;;;;;30.58;5.65;;;;;;;-0.27;100.00;101671.78;6043907;29;20077;-90
2021/12/20 04:04:00;;;;;;;47.67;5.63;;;;;;;-0.29;100.00;101665.88;6032628;29;20144;-90
2021/12/20 04:07:02;;;;;;;28.77;5.47;;;;;;;-0.28;100.00;101673.47;6056939;29;20037;-90
2021/12/20 04:10:05;;;;;;;19.50;5.82;;;;;;;-0.34;100.00;101678.66;6068123;29;20492;-90
2021/12/20 04:13:09;;;;;;;18.95;4.63;;;;;;;-0.36;100.00;101680.38;6032480;29;20053;-90
2021/12/20 04:16:14;;;;;;;24.50;4.95;;;;;;;-0.35;100.00;101696.47;6033190;29;20781;-90
2021/12/20 04:19:16;;;;;;;17.58;5.38;;;;;;;-0.32;100.00;101692.22;6032761;29;20152;-90
2021/12/20 04:22:19;;;;;;;33.72;5.38;;;;;;;-0.31;100.00;101691.31;6049266;29;20053;-90
2021/12/20 04:25:21;;;;;;;27.20;5.18;;;;;;;-0.31;100.00;101700.66;6059360;29;20045;-90
2021/12/20 04:28:28;;;;;;;16.65;4.47;;;;;;;-0.34;100.00;101704.09;6036440;29;20114;-90
2021/12/20 04:31:31;;;;;;;63.78;6.18;;;;;;;-0.42;100.00;101695.75;6049627;29;20056;-90
2021/12/20 04:34:33;;;;;;;52.53;5.88;;;;;;;-0.40;100.00;101701.63;6042560;29;20048;-90
2021/12/20 04:37:35;;;;;;;59.85;6.35;;;;;;;-0.34;100.00;101699.00;6059280;29;20041;-90
2021/12/20 04:40:38;;;;;;;77.28;7.82;;;;;;;-0.26;100.00;101701.44;6055301;29;20052;-90
2021/12/20 04:43:40;;;;;;;66.18;5.15;;;;;;;-0.32;100.00;101697.28;6041915;29;20041;-90
2021/12/20 04:46:43;;;;;;;74.45;5.50;;;;;;;-0.41;100.00;101691.50;6042479;29;20128;-90
2021/12/20 04:49:45;;;;;;;48.53;4.68;;;;;;;-0.41;100.00;101694.03;6049435;29;20082;-90
2021/12/20 04:52:48;;;;;;;49.58;4.85;;;;;;;-0.43;100.00;101704.22;6068428;29;20063;-90
2021/12/20 04:55:50;;;;;;;41.22;4.45;;;;;;;-0.49;100.00;101709.41;6060033;29;20128;-90
2021/12/20 04:58:52;;;;;;;52.28;5.60;;;;;;;-0.49;100.00;101701.78;6052066;29;20041;-90
2021/12/20 05:01:54;;;;;;;43.58;4.25;;;;;;;-0.52;100.00;101699.25;6044300;29;20510;-90
2021/12/20 05:05:03;;;;;;;49.55;4.95;;;;;;;-0.49;100.00;101699.25;6053335;29;20052;-90
2021/12/20 05:08:06;;;;;;;46.63;5.32;;;;;;;-0.58;100.00;101699.34;6058769;29;20151;-90
2021/12/20 05:11:08;;;;;;;56.88;4.78;;;;;;;-0.54;100.00;101703.56;6043191;29;20041;-90
2021/12/20 05:14:10;;;;;;;27.30;3.50;;;;;;;-0.57;100.00;101704.44;6031662;29;20045;-90
2021/12/20 05:17:13;;;;;;;49.88;4.60;;;;;;;-0.64;100.00;101715.53;6048433;29;20053;-90
2021/12/20 05:20:16;;;;;;;37.35;4.32;;;;;;;-0.69;100.00;101714.78;6062968;29;20080;-89
2021/12/20 05:23:18;;;;;;;29.90;3.80;;;;;;;-0.74;100.00;101714.81;6053784;29;20047;-90
2021/12/20 05:26:23;;;;;;;17.35;3.30;;;;;;;-0.80;100.00;101703.88;6040071;29;20049;-90
2021/12/20 05:29:26;;;;;;;8.63;3.47;;;;;;;-0.85;100.00;101714.09;6049778;29;20532;-90
2021/12/20 05:32:28;;;;;;;10.93;3.75;;;;;;;-0.95;100.00;101715.06;6052708;29;20052;-90
2021/12/20 05:35:30;;;;;;;9.52;3.70;;;;;;;-1.03;100.00;101715.16;6051393;29;20135;-90
2021/12/20 05:38:32;;;;;;;12.52;3.72;;;;;;;-1.17;100.00;101724.63;6053264;29;20641;-90
2021/12/20 05:41:35;;;;;;;6.28;3.40;;;;;;;-1.15;100.00;101733.09;6053234;29;20571;-90
2021/12/20 05:44:37;;;;;;;6.63;3.55;;;;;;;-1.12;100.00;101727.97;6036353;29;20075;-90
2021/12/20 05:47:39;;;;;;;8.00;3.03;;;;;;;-1.07;100.00;101731.31;6065978;29;20056;-90
2021/12/20 05:50:41;;;;;;;10.00;3.95;;;;;;;-1.14;100.00;101743.25;6065970;29;20049;-90
2021/12/20 05:53:44;;;;;;;8.55;3.40;;;;;;;-1.17;100.00;101733.13;6049089;29;20176;-90
2021/12/20 05:56:45;;;;;;;9.90;3.92;;;;;;;-1.15;100.00;101739.00;6040324;29;20053;-90
2021/12/20 05:59:48;;;;;;;9.57;4.40;;;;;;;-1.22;100.00;101737.38;6040722;29;20056;-90
2021/12/20 06:02:52;;;;;;;9.25;4.45;;;;;;;-1.22;100.00;101744.19;6034899;29;20136;-90
2021/12/20 06:05:54;;;;;;;8.93;3.72;;;;;;;-1.32;100.00;101740.88;6063579;29;20081;-89
2021/12/20 06:08:56;;;;;;;7.03;3.85;;;;;;;-1.38;100.00;101743.50;6065284;29;20618;-89
2021/12/20 06:11:59;;;;;;;10.63;4.05;;;;;;;-1.34;100.00;101747.69;6064367;29;20052;-89
2021/12/20 06:15:03;;;;;;;9.55;4.15;;;;;;;-1.41;100.00;101754.53;6038691;29;20045;-89
2021/12/20 06:18:05;;;;;;;11.45;3.72;;;;;;;-1.41;100.00;101744.38;6064862;29;20056;-89
2021/12/20 06:21:08;;;;;;;8.38;4.13;;;;;;;-1.40;100.00;101743.50;6051690;29;20049;-89
2021/12/20 06:24:10;;;;;;;9.32;4.47;;;;;;;-1.36;100.00;101754.50;6065246;29;20037;-89
2021/12/20 06:27:12;;;;;;;8.80;4.55;;;;;;;-1.40;100.00;101747.75;6064282;29;20057;-89
2021/12/20 06:30:14;;;;;;;13.30;4.60;;;;;;;-1.46;100.00;101752.91;6065084;29;20852;-89
2021/12/20 06:33:30;;;;;;;10.82;4.57;;;;;;;-1.52;100.00;101761.38;6034449;29;20057;-89
2021/12/20 06:36:32;;;;;;;11.27;4.68;;;;;;;-1.50;100.00;101758.84;6033870;29;20089;-89
2021/12/20 06:39:34;;;;;;;10.63;4.82;;;;;;;-1.58;100.00;101767.38;6038887;29;20057;-89
2021/12/20 06:42:38;;;;;;;9.27;4.53;;;;;;;-1.59;100.00;101765.69;6051842;29;20045;-89
2021/12/20 06:45:40;;;;;;;12.30;4.40;;;;;;;-1.61;100.00;101757.25;6051334;29;20506;-89
2021/12/20 06:48:42;;;;;;;11.93;4.57;;;;;;;-1.56;100.00;101752.97;6051035;29;20117;-90
2021/12/20 06:51:44;;;;;;;12.85;4.72;;;;;;;-1.62;100.00;101762.31;6045436;29;20497;-89
2021/12/20 06:54:46;;;;;;;7.80;3.65;;;;;;;-1.63;100.00;101756.41;6056751;29;20037;-89
2021/12/20 06:57:48;;;;;;;7.85;3.72;;;;;;;-1.63;100.00;101768.28;6051803;29;20045;-89
2021/12/20 07:00:56;;;;;;;7.78;3.83;;;;;;;-1.66;100.00;101764.06;6058777;29;20176;-89
2021/12/20 07:03:58;;;;;;;10.00;4.28;;;;;;;-1.63;100.00;101760.66;6056885;29;20045;-89
2021/12/20 07:07:02;;;;;;;11.52;4.10;;;;;;;-1.60;100.00;101765.69;6067203;29;20057;-89
2021/12/20 07:10:05;;;;;;;12.02;4.00;;;;;;;-1.57;100.00;101771.59;6075309;29;20051;-89
2021/12/20 07:13:09;;;;;;;11.05;3.70;;;;;;;-1.57;100.00;101773.28;6038896;29;20488;-89
2021/12/20 07:16:12;;;;;;;10.32;4.28;;;;;;;-1.64;100.00;101774.19;6051219;29;20079;-89
2021/12/20 07:19:14;;;;;;;9.38;3.88;;;;;;;-1.60;100.00;101778.41;6038441;29;20068;-89
2021/12/20 07:22:16;;;;;;;7.72;3.72;;;;;;;-1.71;100.00;101780.16;6053395;29;20072;-89
2021/12/20 07:25:19;;;;;;;8.18;3.92;;;;;;;-1.67;100.00;101785.22;6074372;29;20056;-89
2021/12/20 07:28:22;;;;;;;10.48;4.55;;;;;;;-1.64;100.00;101777.59;6034769;29;20056;-89
2021/12/20 07:31:24;;;;;;;7.88;3.47;;;;;;;-1.64;100.00;101784.34;6054174;29;20052;-89
2021/12/20 07:34:25;;;;;;;9.50;4.18;;;;;;;-1.50;100.00;101794.41;6041648;29;20488;-89
2021/12/20 07:37:28;;;;;;;14.82;5.00;;;;;;;-1.57;100.00;101785.97;6050860;29;20049;-89
2021/12/20 07:40:30;;;;;;;13.60;4.80;;;;;;;-1.62;100.00;101791.09;6054452;29;20131;-89
2021/12/20 07:43:32;;;;;;;9.98;4.38;;;;;;;-1.52;100.00;101795.25;6036361;29;20100;-89
2021/12/20 07:46:34;;;;;;;12.88;4.88;;;;;;;-1.57;100.00;101793.59;6064762;29;20045;-89
2021/12/20 07:49:36;;;;;;;12.40;4.78;;;;;;;-1.59;100.00;101791.09;6061873;29;20052;-89
2021/12/20 07:52:52;;;;;;;9.00;4.50;;;;;;;-1.70;100.00;101789.47;6065181;29;20044;-89
2021/12/20 07:55:54;;;;;;;10.75;4.45;;;;;;;-1.46;100.00;101793.53;6053350;29;20057;-89
2021/12/20 07:58:56;;;;;;;8.82;3.95;;;;;;;-1.45;100.00;101795.19;6041764;29;20040;-89
2021/12/20 08:01:59;;;;;;;10.15;4.18;;;;;;;-1.47;100.00;101805.34;6055395;29;20059;-89
2021/12/20 08:05:02;;;;;;;8.35;4.43;;;;;;;-1.42;100.00;101805.31;6048499;29;20053;-89
2021/12/20 08:08:05;;;;;;;9.57;4.30;;;;;;;-1.49;100.00;101807.09;6050455;29;20045;-89
2021/12/20 08:11:08;;;;;;;13.02;5.07;;;;;;;-1.47;100.00;101801.97;6063247;29;20583;-89
2021/12/20 08:14:10;;;;;;;9.30;3.90;;;;;;;-1.33;100.00;101807.78;6050193;29;20044;-89
2021/12/20 08:17:12;;;;;;;11.35;4.57;;;;;;;-1.31;100.00;101808.63;6054487;29;20056;-89
2021/12/20 08:20:15;;;;;;;8.55;4.05;;;;;;;-1.32;100.00;101809.47;6059751;29;20045;-89
2021/12/20 08:23:20;;;;;;;8.60;3.97;;;;;;;-1.29;100.00;101814.53;6061557;29;20127;-89
2021/12/20 08:26:22;;;;;;;9.75;4.43;;;;;;;-1.28;100.00;101812.84;6049675;29;20132;-89
2021/12/20 08:29:24;;;;;;;8.80;4.30;;;;;;;-1.18;100.00;101824.59;6050186;29;20068;-89
2021/12/20 08:32:26;;;;;;;12.07;4.40;;;;;;;-1.28;100.00;101828.91;6055345;29;20045;-89
2021/12/20 08:35:28;;;;;;;11.10;4.10;;;;;;;-1.24;100.00;101825.50;6050013;29;20156;-89
2021/12/20 08:38:30;;;;;;;10.88;3.85;;;;;;;-1.13;100.00;101825.38;6049872;29;20049;-89
2021/12/20 08:41:34;;;;;;;11.77;4.03;;;;;;;-1.22;100.00;101826.28;6057585;29;20044;-89
2021/12/20 08:44:36;;;;;;;9.38;4.22;;;;;;;-1.16;100.00;101828.78;6054770;29;20049;-89
2021/12/20 08:47:39;;;;;;;9.73;3.85;;;;;;;-1.16;100.00;101833.03;6031587;29;20057;-89
2021/12/20 08:50:41;;;;;;;9.38;3.78;;;;;;;-1.13;100.00;101833.00;6040114;29;20041;-89
2021/12/20 08:53:49;;;;;;;10.90;3.72;;;;;;;-1.06;100.00;101842.25;6071911;29;20045;-89
2021/12/20 08:56:51;;;;;;;8.43;4.40;;;;;;;-1.14;100.00;101842.34;6052391;29;20041;-89
2021/12/20 08:59:53;;;;;;;12.45;5.10;;;;;;;-1.10;100.00;101836.34;6026686;29;20056;-89
2021/12/20 09:02:56;;;;;;;12.23;4.32;;;;;;;-1.11;100.00;101842.28;6041535;29;20139;-89
2021/12/20 09:05:58;;;;;;;13.88;4.30;;;;;;;-1.14;100.00;101842.34;6027620;29;20086;-88
2021/12/20 09:09:00;;;;;;;12.00;5.03;;;;;;;-1.09;100.00;101850.75;6048741;29;20045;-87
2021/12/20 09:12:04;;;;;;;11.13;4.90;;;;;;;-1.02;100.00;101853.22;6048337;29;20055;-88
2021/12/20 09:15:16;;;;;;;13.45;4.72;;;;;;;-1.15;100.00;101845.72;6047292;29;20124;-88
2021/12/20 09:18:19;;;;;;;12.50;5.38;;;;;;;-1.14;100.00;101849.97;6045318;29;20172;-88
2021/12/20 09:21:25;;;;;;;11.10;4.88;;;;;;;-1.10;100.00;101859.22;6045588;29;20564;-87
2021/12/20 09:24:27;;;;;;;10.90;4.03;;;;;;;-1.03;100.00;101859.16;6029820;29;20518;-87
2021/12/20 09:27:29;;;;;;;10.32;4.05;;;;;;;-0.98;100.00;101858.25;6023229;29;20053;-87
2021/12/20 09:30:31;;;;;;;11.45;4.20;;;;;;;-0.94;100.00;101859.09;6043335;29;20092;-87
2021/12/20 09:33:35;;;;;;;11.35;4.10;;;;;;;-0.81;100.00;101862.34;6015864;29;20095;-87
2021/12/20 09:36:40;;;;;;;9.02;4.85;;;;;;;-0.79;100.00;101858.09;6040999;29;20041;-87
2021/12/20 09:39:42;;;;;;;11.85;4.43;;;;;;;-0.78;100.00;101857.22;6044759;29;20041;-87
2021/12/20 09:42:54;;;;;;;11.70;4.25;;;;;;;-0.69;100.00;101859.69;6028502;29;20045;-87
2021/12/20 09:45:57;;;;;;;11.35;4.75;;;;;;;-0.67;100.00;101855.44;6041227;29;20058;-88
2021/12/20 09:49:00;;;;;;;11.30;4.38;;;;;;;-0.56;100.00;101857.84;6030300;29;20685;-88
2021/12/20 09:52:03;;;;;;;12.13;4.25;;;;;;;-0.41;100.00;101857.66;6044004;29;20045;-88
2021/12/20 09:55:06;;;;;;;9.73;3.85;;;;;;;-0.52;100.00;101857.78;6044411;29;20079;-88
2021/12/20 09:58:08;;;;;;;11.05;4.10;;;;;;;-0.36;100.00;101853.34;6043790;29;20629;-88
2021/12/20 10:01:15;;;;;;;8.73;3.90;;;;;;;-0.33;100.00;101862.66;6038717;29;20389;-88
2021/12/20 10:04:22;;;;;;;11.52;3.85;;;;;;;-0.46;100.00;101861.97;6035617;29;20515;-88
2021/12/20 10:07:26;;;;;;;9.63;4.40;;;;;;;-0.40;100.00;101859.34;6038247;29;20041;-88
2021/12/20 10:10:48;;;;;;;13.25;4.05;;;;;;;-0.44;100.00;101857.72;6032168;29;20102;-88
2021/12/20 10:14:01;;;;;;;13.50;4.93;;;;;;;-0.20;100.00;101868.44;6044525;29;20081;-88
2021/12/20 10:17:05;;;;;;;13.45;5.03;;;;;;;-0.22;100.00;101864.22;6052113;29;20456;-88
2021/12/20 10:20:16;;;;;;;13.25;5.15;;;;;;;-0.23;100.00;101867.59;6065269;29;20049;-88
2021/12/20 10:23:22;;;;;;;14.68;4.75;;;;;;;-0.15;100.00;101871.75;6056275;29;20053;-88
2021/12/20 10:26:24;;;;;;;9.88;4.25;;;;;;;-0.20;100.00;101870.97;6047253;29;20049;-88
2021/12/20 10:29:27;;;;;;;11.50;4.45;;;;;;;-0.21;100.00;101859.97;6012406;29;20049;-88
2021/12/20 10:32:43;;;;;;;11.68;5.97;;;;;;;-0.12;100.00;101862.41;6048403;29;20083;-88
2021/12/20 10:35:53;;;;;;;12.10;4.93;;;;;;;-0.09;100.00;101861.50;6051956;29;20065;-88
2021/12/20 10:38:57;;;;;;;11.20;4.75;;;;;;;-0.07;100.00;101868.28;6051629;29;20052;-88
2021/12/20 10:42:24;;;;;;;14.18;5.93;;;;;;;-0.08;100.00;101861.47;6051875;29;20049;-88
2021/12/20 10:45:27;;;;;;;14.55;5.30;;;;;;;0.06;100.00;101868.09;6040263;29;20402;-88
2021/12/20 10:48:33;;;;;;;12.60;5.95;;;;;;;0.04;100.00;101867.28;6034751;29;20056;-88
2021/12/20 10:51:44;;;;;;;12.15;5.57;;;;;;;0.05;100.00;101863.84;6039421;29;20053;-88
2021/12/20 10:54:47;;;;;;;18.08;5.95;;;;;;;0.17;100.00;101862.00;6054411;29;20130;-88
2021/12/20 10:57:49;;;;;;;11.80;5.55;;;;;;;0.28;100.00;101861.84;6064817;29;20057;-89
2021/12/20 11:04:57;;;;;;;10.38;4.30;;;;;;;0.26;100.00;101850.00;6051221;29;20703;-88
2021/12/20 11:11:50;;;;;;;9.35;4.28;;;;;;;0.24;100.00;101856.81;6051382;29;20045;-88
2021/12/20 11:15:00;;;;;;;11.93;4.32;;;;;;;0.25;100.00;101856.81;6051099;29;20507;-88
2021/12/20 11:18:14;;;;;;;9.27;4.27;;;;;;;0.33;100.00;101854.16;6050739;29;20044;-88
2021/12/20 11:21:19;;;;;;;11.77;4.10;;;;;;;0.33;100.00;101851.59;6053942;29;20102;-88
2021/12/20 11:24:24;;;;;;;11.70;4.65;;;;;;;0.38;100.00;101852.38;6053844;29;20067;-88
2021/12/20 11:27:35;;;;;;;11.35;4.25;;;;;;;0.55;100.00;101847.03;6050777;29;20052;-88
2021/12/20 11:30:38;;;;;;;8.32;4.28;;;;;;;0.64;100.00;101851.94;6050596;29;20045;-89
2021/12/20 11:33:40;;;;;;;11.90;4.65;;;;;;;0.74;100.00;101845.81;6050622;29;20055;-88
2021/12/20 11:36:42;;;;;;;13.68;4.43;;;;;;;0.71;100.00;101850.16;6042688;29;20045;-88
2021/12/20 11:39:46;;;;;;;14.30;3.92;;;;;;;0.75;100.00;101849.25;6041844;29;20530;-88
2021/12/20 11:42:52;;;;;;;10.82;4.25;;;;;;;0.71;100.00;101850.16;6050846;29;20049;-88
2021/12/20 11:45:57;;;;;;;9.98;4.53;;;;;;;0.76;100.00;101843.25;6061226;29;20139;-88
2021/12/20 11:48:59;;;;;;;11.10;5.00;;;;;;;0.66;100.00;101837.47;6040148;29;20049;-89
2021/12/20 11:52:19;;;;;;;11.73;4.55;;;;;;;0.74;100.00;101845.00;6056606;29;20052;-88
2021/12/20 11:55:28;;;;;;;11.43;4.70;;;;;;;0.79;100.00;101841.50;6046277;29;20099;-88
2021/12/20 11:58:32;;;;;;;10.15;4.40;;;;;;;0.86;100.00;101849.88;6050752;29;20049;-88
2021/12/20 12:01:35;;;;;;;11.05;4.78;;;;;;;1.02;100.00;101850.47;6046383;29;20045;-88
2021/12/20 12:05:05;;;;;;;14.70;4.75;;;;;;;1.09;100.00;101852.00;6051018;29;20052;-89
2021/12/20 12:08:32;;;;;;;9.55;4.15;;;;;;;1.27;100.00;101851.69;6055845;29;20056;-88
2021/12/20 12:11:35;;;;;;;10.50;4.72;;;;;;;1.21;100.00;101849.25;6050470;29;20503;-88
2021/12/20 12:15:02;;;;;;;9.10;4.22;;;;;;;1.23;100.00;101854.31;6030568;29;20063;-89
2021/12/20 12:18:05;;;;;;;13.30;5.15;;;;;;;1.26;100.00;101860.19;6040708;29;20048;-85
2021/12/20 12:21:07;;;;;;;9.57;4.07;;;;;;;1.37;100.00;101860.00;6035474;29;20067;-89
2021/12/20 12:24:51;;;;;;;12.82;4.45;;;;;;;1.35;100.00;101854.09;6055944;29;20055;-89
2021/12/20 12:27:58;;;;;;;15.68;4.88;;;;;;;1.12;100.00;101853.66;6047195;29;20088;-89
2021/12/20 12:31:04;;;;;;;13.88;5.35;;;;;;;1.10;100.00;101842.69;6047881;29;20041;-90
2021/12/20 12:34:08;;;;;;;8.35;4.25;;;;;;;1.08;100.00;101853.72;6040137;29;20056;-90
2021/12/20 12:37:30;;;;;;;11.85;4.90;;;;;;;1.19;100.00;101839.94;6064879;29;20059;-90
2021/12/20 12:40:33;;;;;;;9.13;4.35;;;;;;;1.14;100.00;101849.38;6052298;29;20048;-89
2021/12/20 12:43:53;;;;;;;12.25;5.13;;;;;;;1.02;100.00;101851.31;6054355;29;20048;-89
2021/12/20 12:47:13;;;;;;;11.55;5.03;;;;;;;0.99;100.00;101850.50;6044341;29;20281;-90
2021/12/20 12:50:33;;;;;;;8.82;4.25;;;;;;;1.15;100.00;101849.38;6020517;29;20053;-90
2021/12/20 12:53:39;;;;;;;13.68;5.03;;;;;;;1.14;100.00;101849.38;6043278;29;20452;-90
2021/12/20 12:56:42;;;;;;;10.25;4.53;;;;;;;1.12;100.00;101848.56;6026569;29;20505;-90
2021/12/20 12:59:47;;;;;;;11.45;4.60;;;;;;;1.31;100.00;101842.25;6031032;29;20072;-89
2021/12/20 13:02:51;;;;;;;16.88;5.55;;;;;;;1.17;100.00;101840.00;6043224;29;20045;-89
2021/12/20 13:05:53;;;;;;;8.90;5.13;;;;;;;1.15;100.00;101854.47;6038791;29;20128;-89
2021/12/20 13:08:59;;;;;;;12.93;5.38;;;;;;;1.10;100.00;101847.78;6033329;29;20052;-89
2021/12/20 13:12:24;;;;;;;9.88;5.13;;;;;;;1.01;100.00;101844.50;6039673;29;20152;-90
2021/12/20 13:18:40;;;;;;;11.52;5.90;;;;;;;1.03;100.00;101852.13;6043176;29;20407;-89
2021/12/20 13:21:57;;;;;;;10.15;4.45;;;;;;;1.03;100.00;101852.13;6031118;29;20041;-89
2021/12/20 13:24:59;;;;;;;7.38;4.32;;;;;;;0.92;100.00;101852.34;6037661;29;20116;-89
2021/12/20 13:28:01;;;;;;;13.93;5.32;;;;;;;0.91;100.00;101852.34;6040319;29;20084;-89
2021/12/20 13:31:03;;;;;;;9.38;4.65;;;;;;;0.92;100.00;101851.47;6028166;29;20057;-89
2021/12/20 13:34:11;;;;;;;9.15;5.03;;;;;;;0.82;100.00;101846.56;6038450;29;20037;-89
2021/12/20 13:37:13;;;;;;;15.05;5.07;;;;;;;0.82;100.00;101846.56;6033711;29;20041;-89
2021/12/20 13:40:15;;;;;;;9.43;4.75;;;;;;;0.83;100.00;101849.94;6037713;29;20068;-89
2021/12/20 13:43:29;;;;;;;15.68;5.32;;;;;;;0.96;100.00;101840.38;6040456;29;20040;-90
2021/12/20 13:46:44;;;;;;;11.70;5.47;;;;;;;0.76;100.00;101849.19;6019895;29;20075;-89
2021/12/20 13:49:48;;;;;;;12.35;5.28;;;;;;;0.69;100.00;101845.06;6032462;29;20642;-89
2021/12/20 13:52:50;;;;;;;8.88;5.13;;;;;;;0.81;100.00;101846.56;6038764;29;20392;-89
2021/12/20 13:56:00;;;;;;;10.32;5.05;;;;;;;0.74;100.00;101845.81;6046644;29;20342;-89
2021/12/20 13:59:02;;;;;;;9.80;5.57;;;;;;;0.67;100.00;101844.25;6049780;29;20071;-89
2021/12/20 14:02:24;;;;;;;11.60;5.72;;;;;;;0.80;100.00;101837.25;6046879;29;20559;-90
2021/12/20 14:05:35;;;;;;;11.52;5.88;;;;;;;0.68;100.00;101852.75;6029480;29;20049;-90
2021/12/20 14:08:37;;;;;;;8.90;5.25;;;;;;;0.80;100.00;101842.34;6043447;29;20768;-90
2021/12/20 14:11:39;;;;;;;14.38;5.35;;;;;;;0.71;100.00;101847.59;6044701;29;20037;-90
2021/12/20 14:14:59;;;;;;;11.95;5.38;;;;;;;0.66;100.00;101849.38;6042273;29;20050;-90
2021/12/20 14:18:25;;;;;;;13.13;5.28;;;;;;;0.71;100.00;101847.59;6037770;29;20202;-90
2021/12/20 14:21:27;;;;;;;13.10;5.53;;;;;;;0.72;100.00;101850.13;6035464;29;20045;-90
2021/12/20 14:24:39;;;;;;;12.63;5.40;;;;;;;0.66;100.00;101854.47;6037042;29;20148;-90
2021/12/20 14:27:41;;;;;;;11.88;4.97;;;;;;;0.77;100.00;101845.78;6038468;29;20041;-90
2021/12/20 14:30:57;;;;;;;12.10;5.13;;;;;;;0.68;100.00;101853.59;6043781;29;20122;-90